Latest METAR/SPECI Reports

LROP
METAR LROP 211130Z 26013KT 230V290 CAVOK 22/07 Q1020 NOSIG=
LRTR
METAR LRTR 211130Z 19004KT 140V240 9999 FEW045 22/09 Q1021 NOSIG=
LRCL
METAR LRCL 211130Z VRB02KT CAVOK 21/04 Q1020=
LRSB
METAR LRSB 211130Z 01006KT 340V050 CAVOK 20/03 Q1021=
LRBS
METAR LRBS 211130Z 28009KT 240V350 CAVOK 21/04 Q1020 NOSIG=
LRCK
METAR LRCK 211130Z 33007KT 290V360 CAVOK 21/03 Q1019 NOSIG=
LRSV
METAR LRSV 211130Z 27007KT 230V320 CAVOK 23/00 Q1016=
LRIA
METAR LRIA 211130Z 25006KT 230V300 CAVOK 22/M00 Q1016=
LRTM
METAR LRTM 211130Z 26006KT 220V300 CAVOK 21/05 Q1020=
LROD
METAR LROD 211130Z 26007KT CAVOK 21/05 Q1021=
LRSM
METAR LRSM 211130Z 26007KT 220V320 CAVOK 22/06 Q1020=
LRBM
METAR LRBM 211130Z AUTO /////KT //// FEW095/// SCT240/// /////
Q////=
LRAR
METAR LRAR 211130Z 19007KT 140V220 CAVOK 22/09 Q1021=
LRCV
METAR LRCV 211130Z 27008KT 240V300 CAVOK 21/06 Q1020=
LRTC
METAR LRTC 211130Z 31005KT 250V010 CAVOK 21/04 Q1019=
LRBC
METAR LRBC 211130Z 16007KT 110V190 CAVOK 24/05 Q1017=
LRBO
METAR LRBO 211100Z 24008KT 9999 SKC 21/04 Q1019 BLU BLU=
LRCT
METAR LRCT 211100Z VRB03KT 9999 SKC 19/07 Q1021 BLU BLU=
LRFT
Report more than 3 hours old: METAR LRFT 200900Z 35014G24KT 9999 BKN050 13/05 Q1020 BLU BLU=
LRTZ
METAR LRTZ 211100Z 09010KT 9999 SCT040 19/04 Q1020 BLU BLU=

Latest TAF reports

LROP
TAF LROP 211100Z 2112/2212 25010KT CAVOK BECMG 2200/2202 VRB04KT=
LRTR
TAF LRTR 211100Z 2112/2212 VRB04KT CAVOK=
LRCL
TAF LRCL 211100Z 2112/2121 VRB04KT CAVOK=
LRSB
TAF LRSB 211100Z 2112/2212 35007KT CAVOK=
LRBS
TAF LRBS 211100Z 2112/2212 25010KT CAVOK BECMG 2200/2202 VRB04KT=
LRCK
TAF LRCK 211100Z 2112/2212 30010KT CAVOK BECMG 2115/2117 22005KT
    BECMG 2122/2124 28011KT BECMG 2209/2211 VRB04KT=
LRSV
TAF LRSV 211100Z 2112/2121 28008KT CAVOK=
LRIA
TAF LRIA 211100Z 2112/2121 25007KT CAVOK=
LRTM
TAF LRTM 211100Z 2112/2121 VRB04KT CAVOK=
LROD
TAF LROD 211100Z 2112/2121 23006KT CAVOK=
LRSM
TAF LRSM 211100Z 2112/2121 25008KT CAVOK=
LRBM
TAF LRBM 211100Z 2112/2121 VRB04KT CAVOK=
LRAR
TAF LRAR 211100Z 2112/2121 22008KT CAVOK=
LRCV
TAF LRCV 211100Z 2112/2121 27010KT CAVOK BECMG 2116/2118 VRB04KT=
LRTC
TAF LRTC 211100Z 2112/2121 VRB04KT CAVOK BECMG 2116/2118 23010KT=
LRBC
TAF LRBC 211100Z 2112/2121 16005KT CAVOK=
LRBO
TAF LRBO 211100Z 2112/2212 24008KT 9999 SKC=
LRCT
TAF LRCT 211100Z 2112/2212 VRB03KT 9999 SKC=
LRFT
Report more than 12 hours old: TAF LRFT 200500Z 2006/2106 32014KT 9999 SCT100 BECMG 2010/2012 36015G25KT BKN050=
LRTZ
TAF LRTZ 211100Z 2112/2212 1308KT 9999 SCT040
         BECMG 2115/2117 19006KT SKC=

Valid WARNINGS

No reports found.